sensor_id;sensor_type;location;lat;lon;timestamp;P1;durP1;ratioP1;P2;durP2;ratioP2
57752;SDS011;43583;53.132;6.574;2022-12-18T00:01:35;66.55;;;22.45;;
57752;SDS011;43583;53.132;6.574;2022-12-18T00:04:03;81.93;;;21.38;;
57752;SDS011;43583;53.132;6.574;2022-12-18T00:06:30;74.82;;;22.17;;
57752;SDS011;43583;53.132;6.574;2022-12-18T00:08:57;60.10;;;21.83;;
57752;SDS011;43583;53.132;6.574;2022-12-18T00:11:26;69.15;;;22.33;;
57752;SDS011;43583;53.132;6.574;2022-12-18T00:13:53;67.40;;;20.45;;
57752;SDS011;43583;53.132;6.574;2022-12-18T00:16:21;67.78;;;24.70;;
57752;SDS011;43583;53.132;6.574;2022-12-18T00:18:49;67.80;;;21.10;;
57752;SDS011;43583;53.132;6.574;2022-12-18T00:21:16;78.07;;;23.85;;
57752;SDS011;43583;53.132;6.574;2022-12-18T00:23:43;65.35;;;22.55;;
57752;SDS011;43583;53.132;6.574;2022-12-18T00:26:11;69.18;;;21.20;;
57752;SDS011;43583;53.132;6.574;2022-12-18T00:28:41;68.55;;;21.23;;
57752;SDS011;43583;53.132;6.574;2022-12-18T00:31:08;73.53;;;22.30;;
57752;SDS011;43583;53.132;6.574;2022-12-18T00:33:36;65.85;;;19.70;;
57752;SDS011;43583;53.132;6.574;2022-12-18T00:36:03;73.80;;;21.73;;
57752;SDS011;43583;53.132;6.574;2022-12-18T00:38:29;63.78;;;20.30;;
57752;SDS011;43583;53.132;6.574;2022-12-18T00:40:55;62.97;;;19.88;;
57752;SDS011;43583;53.132;6.574;2022-12-18T00:43:21;61.92;;;21.10;;
57752;SDS011;43583;53.132;6.574;2022-12-18T00:45:46;60.88;;;19.95;;
57752;SDS011;43583;53.132;6.574;2022-12-18T00:48:12;66.32;;;21.55;;
57752;SDS011;43583;53.132;6.574;2022-12-18T00:50:37;60.72;;;20.77;;
57752;SDS011;43583;53.132;6.574;2022-12-18T00:53:03;64.97;;;21.98;;
57752;SDS011;43583;53.132;6.574;2022-12-18T00:55:29;67.88;;;20.75;;
57752;SDS011;43583;53.132;6.574;2022-12-18T00:57:54;82.25;;;24.33;;
57752;SDS011;43583;53.132;6.574;2022-12-18T01:00:20;76.57;;;23.10;;
57752;SDS011;43583;53.132;6.574;2022-12-18T01:02:46;65.40;;;21.35;;
57752;SDS011;43583;53.132;6.574;2022-12-18T01:05:12;58.45;;;18.42;;
57752;SDS011;43583;53.132;6.574;2022-12-18T01:07:38;50.70;;;19.30;;
57752;SDS011;43583;53.132;6.574;2022-12-18T01:10:04;62.78;;;20.77;;
57752;SDS011;43583;53.132;6.574;2022-12-18T01:12:31;58.85;;;18.63;;
57752;SDS011;43583;53.132;6.574;2022-12-18T01:14:56;58.55;;;19.35;;
57752;SDS011;43583;53.132;6.574;2022-12-18T01:17:22;54.25;;;19.13;;
57752;SDS011;43583;53.132;6.574;2022-12-18T01:19:48;63.63;;;21.25;;
57752;SDS011;43583;53.132;6.574;2022-12-18T01:22:13;57.17;;;20.13;;
57752;SDS011;43583;53.132;6.574;2022-12-18T01:24:39;61.28;;;19.48;;
57752;SDS011;43583;53.132;6.574;2022-12-18T01:27:04;61.05;;;19.17;;
57752;SDS011;43583;53.132;6.574;2022-12-18T01:29:30;60.78;;;21.55;;
57752;SDS011;43583;53.132;6.574;2022-12-18T01:31:56;61.38;;;19.48;;
57752;SDS011;43583;53.132;6.574;2022-12-18T01:34:22;59.80;;;20.00;;
57752;SDS011;43583;53.132;6.574;2022-12-18T01:36:49;56.83;;;19.92;;
57752;SDS011;43583;53.132;6.574;2022-12-18T01:39:17;53.38;;;19.05;;
57752;SDS011;43583;53.132;6.574;2022-12-18T01:41:42;64.60;;;19.73;;
57752;SDS011;43583;53.132;6.574;2022-12-18T01:47:30;59.13;;;19.25;;
57752;SDS011;43583;53.132;6.574;2022-12-18T01:50:19;60.28;;;18.15;;
57752;SDS011;43583;53.132;6.574;2022-12-18T01:52:55;60.70;;;20.08;;
57752;SDS011;43583;53.132;6.574;2022-12-18T01:55:25;63.72;;;20.25;;
57752;SDS011;43583;53.132;6.574;2022-12-18T01:57:55;63.92;;;20.48;;
57752;SDS011;43583;53.132;6.574;2022-12-18T02:00:23;62.35;;;21.75;;
57752;SDS011;43583;53.132;6.574;2022-12-18T02:02:50;65.30;;;21.50;;
57752;SDS011;43583;53.132;6.574;2022-12-18T02:05:19;64.78;;;20.50;;
57752;SDS011;43583;53.132;6.574;2022-12-18T02:10:47;70.50;;;21.48;;
57752;SDS011;43583;53.132;6.574;2022-12-18T02:16:37;57.67;;;19.25;;
57752;SDS011;43583;53.132;6.574;2022-12-18T02:18:45;58.88;;;18.50;;
57752;SDS011;43583;53.132;6.574;2022-12-18T02:24:04;59.33;;;19.80;;
57752;SDS011;43583;53.132;6.574;2022-12-18T02:26:50;55.00;;;19.08;;
57752;SDS011;43583;53.132;6.574;2022-12-18T02:29:23;60.58;;;18.95;;
57752;SDS011;43583;53.132;6.574;2022-12-18T02:31:55;53.97;;;16.90;;
57752;SDS011;43583;53.132;6.574;2022-12-18T02:34:24;52.35;;;16.65;;
57752;SDS011;43583;53.132;6.574;2022-12-18T02:36:53;59.80;;;19.15;;
57752;SDS011;43583;53.132;6.574;2022-12-18T02:39:19;65.53;;;20.38;;
57752;SDS011;43583;53.132;6.574;2022-12-18T02:41:47;68.63;;;20.83;;
57752;SDS011;43583;53.132;6.574;2022-12-18T02:44:13;59.45;;;19.33;;
57752;SDS011;43583;53.132;6.574;2022-12-18T02:46:42;66.40;;;22.52;;
57752;SDS011;43583;53.132;6.574;2022-12-18T02:52:28;69.78;;;21.95;;
57752;SDS011;43583;53.132;6.574;2022-12-18T02:58:02;71.38;;;21.58;;
57752;SDS011;43583;53.132;6.574;2022-12-18T03:08:51;65.40;;;20.20;;
57752;SDS011;43583;53.132;6.574;2022-12-18T03:11:21;71.03;;;21.33;;
57752;SDS011;43583;53.132;6.574;2022-12-18T03:16:32;65.40;;;19.17;;
57752;SDS011;43583;53.132;6.574;2022-12-18T03:19:08;60.65;;;19.75;;
57752;SDS011;43583;53.132;6.574;2022-12-18T03:21:45;67.65;;;20.42;;
57752;SDS011;43583;53.132;6.574;2022-12-18T03:24:17;65.57;;;20.83;;
57752;SDS011;43583;53.132;6.574;2022-12-18T03:26:44;62.42;;;20.48;;
57752;SDS011;43583;53.132;6.574;2022-12-18T03:29:17;66.00;;;20.17;;
57752;SDS011;43583;53.132;6.574;2022-12-18T03:31:49;54.75;;;19.08;;
57752;SDS011;43583;53.132;6.574;2022-12-18T03:34:21;68.40;;;20.90;;
57752;SDS011;43583;53.132;6.574;2022-12-18T03:36:52;62.05;;;22.58;;
57752;SDS011;43583;53.132;6.574;2022-12-18T03:39:18;59.83;;;21.40;;
57752;SDS011;43583;53.132;6.574;2022-12-18T03:41:45;62.83;;;20.15;;
57752;SDS011;43583;53.132;6.574;2022-12-18T03:47:25;64.47;;;21.40;;
57752;SDS011;43583;53.132;6.574;2022-12-18T03:50:08;64.65;;;20.65;;
57752;SDS011;43583;53.132;6.574;2022-12-18T03:55:10;62.92;;;20.88;;
57752;SDS011;43583;53.132;6.574;2022-12-18T03:57:36;60.60;;;22.30;;
57752;SDS011;43583;53.132;6.574;2022-12-18T04:00:05;60.17;;;20.23;;
57752;SDS011;43583;53.132;6.574;2022-12-18T04:02:35;63.00;;;18.85;;
57752;SDS011;43583;53.132;6.574;2022-12-18T04:05:04;60.63;;;18.98;;
57752;SDS011;43583;53.132;6.574;2022-12-18T04:07:31;69.05;;;20.00;;
57752;SDS011;43583;53.132;6.574;2022-12-18T04:09:58;59.03;;;20.20;;
57752;SDS011;43583;53.132;6.574;2022-12-18T04:12:26;60.38;;;22.17;;
57752;SDS011;43583;53.132;6.574;2022-12-18T04:14:54;63.13;;;19.63;;
57752;SDS011;43583;53.132;6.574;2022-12-18T04:17:20;55.70;;;20.70;;
57752;SDS011;43583;53.132;6.574;2022-12-18T04:19:45;70.15;;;20.73;;
57752;SDS011;43583;53.132;6.574;2022-12-18T04:22:11;66.00;;;22.10;;
57752;SDS011;43583;53.132;6.574;2022-12-18T04:24:37;65.63;;;22.90;;
57752;SDS011;43583;53.132;6.574;2022-12-18T04:27:03;62.95;;;20.67;;
57752;SDS011;43583;53.132;6.574;2022-12-18T04:29:29;66.43;;;20.13;;
57752;SDS011;43583;53.132;6.574;2022-12-18T04:31:54;62.75;;;18.98;;
57752;SDS011;43583;53.132;6.574;2022-12-18T04:34:20;56.92;;;20.00;;
57752;SDS011;43583;53.132;6.574;2022-12-18T04:36:45;58.95;;;19.70;;
57752;SDS011;43583;53.132;6.574;2022-12-18T04:39:11;71.10;;;19.20;;
57752;SDS011;43583;53.132;6.574;2022-12-18T04:41:37;64.25;;;20.73;;
57752;SDS011;43583;53.132;6.574;2022-12-18T04:44:02;61.75;;;19.38;;
57752;SDS011;43583;53.132;6.574;2022-12-18T04:46:28;67.90;;;20.02;;
57752;SDS011;43583;53.132;6.574;2022-12-18T04:48:54;63.97;;;21.42;;
57752;SDS011;43583;53.132;6.574;2022-12-18T04:51:19;64.05;;;19.05;;
57752;SDS011;43583;53.132;6.574;2022-12-18T04:53:45;59.55;;;21.02;;
57752;SDS011;43583;53.132;6.574;2022-12-18T04:56:12;64.18;;;19.55;;
57752;SDS011;43583;53.132;6.574;2022-12-18T04:58:39;53.53;;;19.40;;
57752;SDS011;43583;53.132;6.574;2022-12-18T05:01:06;59.50;;;19.38;;
57752;SDS011;43583;53.132;6.574;2022-12-18T05:03:32;66.50;;;21.17;;
57752;SDS011;43583;53.132;6.574;2022-12-18T05:05:58;65.75;;;22.77;;
57752;SDS011;43583;53.132;6.574;2022-12-18T05:08:24;59.35;;;18.05;;
57752;SDS011;43583;53.132;6.574;2022-12-18T05:10:49;48.95;;;20.23;;
57752;SDS011;43583;53.132;6.574;2022-12-18T05:13:26;47.60;;;17.95;;
57752;SDS011;43583;53.132;6.574;2022-12-18T05:15:52;55.53;;;18.58;;
57752;SDS011;43583;53.132;6.574;2022-12-18T05:18:18;57.50;;;19.45;;
57752;SDS011;43583;53.132;6.574;2022-12-18T05:20:44;59.95;;;19.10;;
57752;SDS011;43583;53.132;6.574;2022-12-18T05:23:09;49.40;;;19.05;;
57752;SDS011;43583;53.132;6.574;2022-12-18T05:25:35;61.72;;;20.23;;
57752;SDS011;43583;53.132;6.574;2022-12-18T05:28:00;59.60;;;18.27;;
57752;SDS011;43583;53.132;6.574;2022-12-18T05:30:26;55.65;;;19.23;;
57752;SDS011;43583;53.132;6.574;2022-12-18T05:32:52;51.50;;;18.75;;
57752;SDS011;43583;53.132;6.574;2022-12-18T05:35:18;53.55;;;18.38;;
57752;SDS011;43583;53.132;6.574;2022-12-18T05:37:44;51.72;;;17.60;;
57752;SDS011;43583;53.132;6.574;2022-12-18T05:40:10;57.03;;;17.98;;
57752;SDS011;43583;53.132;6.574;2022-12-18T05:42:36;46.33;;;16.70;;
57752;SDS011;43583;53.132;6.574;2022-12-18T05:45:02;51.80;;;16.95;;
57752;SDS011;43583;53.132;6.574;2022-12-18T05:47:28;58.65;;;18.30;;
57752;SDS011;43583;53.132;6.574;2022-12-18T05:49:54;42.38;;;17.25;;
57752;SDS011;43583;53.132;6.574;2022-12-18T05:52:19;51.35;;;19.42;;
57752;SDS011;43583;53.132;6.574;2022-12-18T05:54:45;44.90;;;18.15;;
57752;SDS011;43583;53.132;6.574;2022-12-18T05:57:11;50.45;;;16.60;;
57752;SDS011;43583;53.132;6.574;2022-12-18T05:59:37;55.25;;;17.35;;
57752;SDS011;43583;53.132;6.574;2022-12-18T06:02:02;41.65;;;14.10;;
57752;SDS011;43583;53.132;6.574;2022-12-18T06:04:28;52.88;;;17.80;;
57752;SDS011;43583;53.132;6.574;2022-12-18T06:06:53;55.08;;;16.98;;
57752;SDS011;43583;53.132;6.574;2022-12-18T06:09:19;41.15;;;17.38;;
57752;SDS011;43583;53.132;6.574;2022-12-18T06:11:45;43.67;;;15.73;;
57752;SDS011;43583;53.132;6.574;2022-12-18T06:14:10;35.17;;;15.00;;
57752;SDS011;43583;53.132;6.574;2022-12-18T06:16:36;54.28;;;15.73;;
57752;SDS011;43583;53.132;6.574;2022-12-18T06:19:02;40.50;;;15.20;;
57752;SDS011;43583;53.132;6.574;2022-12-18T06:21:30;47.67;;;15.20;;
57752;SDS011;43583;53.132;6.574;2022-12-18T06:23:56;49.88;;;16.48;;
57752;SDS011;43583;53.132;6.574;2022-12-18T06:26:22;46.60;;;14.10;;
57752;SDS011;43583;53.132;6.574;2022-12-18T06:28:48;50.30;;;16.40;;
57752;SDS011;43583;53.132;6.574;2022-12-18T06:31:14;36.47;;;14.48;;
57752;SDS011;43583;53.132;6.574;2022-12-18T06:33:39;39.45;;;15.18;;
57752;SDS011;43583;53.132;6.574;2022-12-18T06:36:06;38.95;;;14.75;;
57752;SDS011;43583;53.132;6.574;2022-12-18T06:38:36;46.03;;;15.30;;
57752;SDS011;43583;53.132;6.574;2022-12-18T06:41:13;32.60;;;14.10;;
57752;SDS011;43583;53.132;6.574;2022-12-18T06:43:40;35.65;;;13.88;;
57752;SDS011;43583;53.132;6.574;2022-12-18T06:46:06;37.28;;;12.98;;
57752;SDS011;43583;53.132;6.574;2022-12-18T06:48:32;40.30;;;13.63;;
57752;SDS011;43583;53.132;6.574;2022-12-18T06:50:58;38.75;;;13.20;;
57752;SDS011;43583;53.132;6.574;2022-12-18T06:53:24;31.85;;;12.75;;
57752;SDS011;43583;53.132;6.574;2022-12-18T06:55:49;33.67;;;12.18;;
57752;SDS011;43583;53.132;6.574;2022-12-18T06:58:15;35.05;;;12.95;;
57752;SDS011;43583;53.132;6.574;2022-12-18T07:00:40;38.33;;;13.40;;
57752;SDS011;43583;53.132;6.574;2022-12-18T07:03:06;28.40;;;14.18;;
57752;SDS011;43583;53.132;6.574;2022-12-18T07:05:32;32.53;;;12.60;;
57752;SDS011;43583;53.132;6.574;2022-12-18T07:07:58;36.83;;;13.07;;
57752;SDS011;43583;53.132;6.574;2022-12-18T07:10:23;32.85;;;13.43;;
57752;SDS011;43583;53.132;6.574;2022-12-18T07:12:49;36.53;;;12.95;;
57752;SDS011;43583;53.132;6.574;2022-12-18T07:15:15;34.80;;;13.68;;
57752;SDS011;43583;53.132;6.574;2022-12-18T07:17:40;39.33;;;14.25;;
57752;SDS011;43583;53.132;6.574;2022-12-18T07:20:06;30.42;;;12.73;;
57752;SDS011;43583;53.132;6.574;2022-12-18T07:22:32;39.80;;;12.65;;
57752;SDS011;43583;53.132;6.574;2022-12-18T07:24:57;33.70;;;14.10;;
57752;SDS011;43583;53.132;6.574;2022-12-18T07:27:23;34.95;;;13.38;;
57752;SDS011;43583;53.132;6.574;2022-12-18T07:29:49;32.03;;;12.95;;
57752;SDS011;43583;53.132;6.574;2022-12-18T07:32:14;32.70;;;12.68;;
57752;SDS011;43583;53.132;6.574;2022-12-18T07:34:40;29.50;;;13.23;;
57752;SDS011;43583;53.132;6.574;2022-12-18T07:37:06;34.65;;;12.88;;
57752;SDS011;43583;53.132;6.574;2022-12-18T07:39:31;32.80;;;13.55;;
57752;SDS011;43583;53.132;6.574;2022-12-18T07:41:57;40.30;;;14.82;;
57752;SDS011;43583;53.132;6.574;2022-12-18T07:44:41;37.53;;;14.40;;
57752;SDS011;43583;53.132;6.574;2022-12-18T07:47:06;32.88;;;12.57;;
57752;SDS011;43583;53.132;6.574;2022-12-18T07:49:32;33.90;;;11.32;;
57752;SDS011;43583;53.132;6.574;2022-12-18T07:51:57;41.08;;;13.18;;
57752;SDS011;43583;53.132;6.574;2022-12-18T07:54:23;28.15;;;12.93;;
57752;SDS011;43583;53.132;6.574;2022-12-18T07:56:50;33.28;;;12.70;;
57752;SDS011;43583;53.132;6.574;2022-12-18T07:59:16;29.15;;;14.00;;
57752;SDS011;43583;53.132;6.574;2022-12-18T08:01:41;22.15;;;10.98;;
57752;SDS011;43583;53.132;6.574;2022-12-18T08:04:07;35.53;;;13.00;;
57752;SDS011;43583;53.132;6.574;2022-12-18T08:06:32;32.70;;;12.98;;
57752;SDS011;43583;53.132;6.574;2022-12-18T08:08:58;33.75;;;14.75;;
57752;SDS011;43583;53.132;6.574;2022-12-18T08:11:24;37.75;;;12.93;;
57752;SDS011;43583;53.132;6.574;2022-12-18T08:13:50;30.88;;;12.45;;
57752;SDS011;43583;53.132;6.574;2022-12-18T08:16:16;30.92;;;12.25;;
57752;SDS011;43583;53.132;6.574;2022-12-18T08:18:43;30.60;;;12.48;;
57752;SDS011;43583;53.132;6.574;2022-12-18T08:21:09;25.90;;;11.65;;
57752;SDS011;43583;53.132;6.574;2022-12-18T08:23:43;25.92;;;11.45;;
57752;SDS011;43583;53.132;6.574;2022-12-18T08:26:10;30.02;;;13.88;;
57752;SDS011;43583;53.132;6.574;2022-12-18T08:28:36;28.10;;;12.48;;
57752;SDS011;43583;53.132;6.574;2022-12-18T08:31:02;28.13;;;10.65;;
57752;SDS011;43583;53.132;6.574;2022-12-18T08:33:28;26.83;;;11.90;;
57752;SDS011;43583;53.132;6.574;2022-12-18T08:35:54;31.25;;;10.85;;
57752;SDS011;43583;53.132;6.574;2022-12-18T08:38:19;36.45;;;14.23;;
57752;SDS011;43583;53.132;6.574;2022-12-18T08:40:45;23.13;;;9.80;;
57752;SDS011;43583;53.132;6.574;2022-12-18T08:43:11;27.95;;;11.10;;
57752;SDS011;43583;53.132;6.574;2022-12-18T08:45:55;25.85;;;10.57;;
57752;SDS011;43583;53.132;6.574;2022-12-18T08:48:21;24.58;;;10.55;;
57752;SDS011;43583;53.132;6.574;2022-12-18T08:50:53;29.80;;;11.68;;
57752;SDS011;43583;53.132;6.574;2022-12-18T08:53:20;27.42;;;11.45;;
57752;SDS011;43583;53.132;6.574;2022-12-18T08:55:45;25.08;;;11.65;;
57752;SDS011;43583;53.132;6.574;2022-12-18T08:58:11;24.00;;;11.30;;
57752;SDS011;43583;53.132;6.574;2022-12-18T09:00:36;27.05;;;11.20;;
57752;SDS011;43583;53.132;6.574;2022-12-18T09:03:02;31.40;;;12.73;;
57752;SDS011;43583;53.132;6.574;2022-12-18T09:05:27;32.10;;;12.27;;
57752;SDS011;43583;53.132;6.574;2022-12-18T09:07:53;26.92;;;12.20;;
57752;SDS011;43583;53.132;6.574;2022-12-18T09:10:18;20.50;;;11.50;;
57752;SDS011;43583;53.132;6.574;2022-12-18T09:12:44;28.67;;;11.35;;
57752;SDS011;43583;53.132;6.574;2022-12-18T09:15:09;22.98;;;10.32;;
57752;SDS011;43583;53.132;6.574;2022-12-18T09:17:35;24.30;;;10.70;;
57752;SDS011;43583;53.132;6.574;2022-12-18T09:20:01;22.33;;;10.82;;
57752;SDS011;43583;53.132;6.574;2022-12-18T09:22:26;30.90;;;11.27;;
57752;SDS011;43583;53.132;6.574;2022-12-18T09:24:52;24.83;;;12.20;;
57752;SDS011;43583;53.132;6.574;2022-12-18T09:27:17;20.55;;;9.93;;
57752;SDS011;43583;53.132;6.574;2022-12-18T09:29:43;28.15;;;11.88;;
57752;SDS011;43583;53.132;6.574;2022-12-18T09:32:08;26.35;;;12.20;;
57752;SDS011;43583;53.132;6.574;2022-12-18T09:34:34;26.15;;;12.07;;
57752;SDS011;43583;53.132;6.574;2022-12-18T09:36:59;30.70;;;11.88;;
57752;SDS011;43583;53.132;6.574;2022-12-18T09:39:25;33.33;;;12.88;;
57752;SDS011;43583;53.132;6.574;2022-12-18T09:41:54;26.85;;;12.25;;
57752;SDS011;43583;53.132;6.574;2022-12-18T09:46:54;24.85;;;11.50;;
57752;SDS011;43583;53.132;6.574;2022-12-18T09:49:29;26.10;;;11.73;;
57752;SDS011;43583;53.132;6.574;2022-12-18T09:52:02;22.60;;;12.13;;
57752;SDS011;43583;53.132;6.574;2022-12-18T09:54:35;26.35;;;12.32;;
57752;SDS011;43583;53.132;6.574;2022-12-18T09:57:05;25.90;;;11.35;;
57752;SDS011;43583;53.132;6.574;2022-12-18T09:59:35;19.42;;;9.77;;
57752;SDS011;43583;53.132;6.574;2022-12-18T10:02:16;23.65;;;10.88;;
57752;SDS011;43583;53.132;6.574;2022-12-18T10:05:03;23.38;;;11.75;;
57752;SDS011;43583;53.132;6.574;2022-12-18T10:07:43;22.85;;;10.77;;
57752;SDS011;43583;53.132;6.574;2022-12-18T10:16:10;15.13;;;7.50;;
57752;SDS011;43583;53.132;6.574;2022-12-18T10:21:45;19.42;;;8.38;;
57752;SDS011;43583;53.132;6.574;2022-12-18T10:24:38;21.98;;;10.27;;
57752;SDS011;43583;53.132;6.574;2022-12-18T10:27:15;18.08;;;8.38;;
57752;SDS011;43583;53.132;6.574;2022-12-18T10:29:43;18.58;;;9.25;;
57752;SDS011;43583;53.132;6.574;2022-12-18T10:32:13;17.48;;;8.57;;
57752;SDS011;43583;53.132;6.574;2022-12-18T10:34:59;17.35;;;7.72;;
57752;SDS011;43583;53.132;6.574;2022-12-18T10:37:26;21.63;;;7.80;;
57752;SDS011;43583;53.132;6.574;2022-12-18T10:40:07;16.75;;;7.80;;
57752;SDS011;43583;53.132;6.574;2022-12-18T10:42:38;16.58;;;7.60;;
57752;SDS011;43583;53.132;6.574;2022-12-18T10:45:13;16.00;;;7.35;;
57752;SDS011;43583;53.132;6.574;2022-12-18T10:47:43;14.82;;;6.72;;
57752;SDS011;43583;53.132;6.574;2022-12-18T10:50:18;14.23;;;6.95;;
57752;SDS011;43583;53.132;6.574;2022-12-18T10:52:57;11.20;;;5.55;;
57752;SDS011;43583;53.132;6.574;2022-12-18T10:55:32;14.20;;;6.05;;
57752;SDS011;43583;53.132;6.574;2022-12-18T10:58:18;11.77;;;5.05;;
57752;SDS011;43583;53.132;6.574;2022-12-18T11:00:48;12.65;;;6.05;;
57752;SDS011;43583;53.132;6.574;2022-12-18T11:08:57;12.35;;;5.57;;
57752;SDS011;43583;53.132;6.574;2022-12-18T11:11:27;12.85;;;5.72;;
57752;SDS011;43583;53.132;6.574;2022-12-18T11:14:11;13.52;;;4.57;;
57752;SDS011;43583;53.132;6.574;2022-12-18T11:16:45;8.27;;;4.30;;
57752;SDS011;43583;53.132;6.574;2022-12-18T11:21:44;8.98;;;4.22;;
57752;SDS011;43583;53.132;6.574;2022-12-18T11:24:20;9.35;;;4.38;;
57752;SDS011;43583;53.132;6.574;2022-12-18T11:26:48;8.98;;;4.03;;
57752;SDS011;43583;53.132;6.574;2022-12-18T11:29:16;10.50;;;4.43;;
57752;SDS011;43583;53.132;6.574;2022-12-18T11:31:47;8.30;;;4.50;;
57752;SDS011;43583;53.132;6.574;2022-12-18T11:34:15;7.85;;;4.47;;
57752;SDS011;43583;53.132;6.574;2022-12-18T11:36:47;8.13;;;3.80;;
57752;SDS011;43583;53.132;6.574;2022-12-18T11:39:30;7.97;;;4.80;;
57752;SDS011;43583;53.132;6.574;2022-12-18T11:42:10;8.00;;;3.95;;
57752;SDS011;43583;53.132;6.574;2022-12-18T11:44:54;7.55;;;4.22;;
57752;SDS011;43583;53.132;6.574;2022-12-18T11:50:19;7.53;;;3.80;;
57752;SDS011;43583;53.132;6.574;2022-12-18T11:52:48;6.43;;;4.38;;
57752;SDS011;43583;53.132;6.574;2022-12-18T11:55:15;7.40;;;3.67;;
57752;SDS011;43583;53.132;6.574;2022-12-18T12:00:35;13.55;;;3.55;;
57752;SDS011;43583;53.132;6.574;2022-12-18T12:14:44;5.07;;;2.55;;
57752;SDS011;43583;53.132;6.574;2022-12-18T12:17:35;6.43;;;2.70;;
57752;SDS011;43583;53.132;6.574;2022-12-18T12:23:26;8.38;;;4.18;;
57752;SDS011;43583;53.132;6.574;2022-12-18T12:26:04;7.68;;;3.38;;
57752;SDS011;43583;53.132;6.574;2022-12-18T12:34:23;4.68;;;2.33;;
57752;SDS011;43583;53.132;6.574;2022-12-18T12:39:55;6.50;;;2.63;;
57752;SDS011;43583;53.132;6.574;2022-12-18T12:42:31;3.75;;;2.20;;
57752;SDS011;43583;53.132;6.574;2022-12-18T12:45:27;6.57;;;3.38;;
57752;SDS011;43583;53.132;6.574;2022-12-18T12:48:02;3.88;;;2.30;;
57752;SDS011;43583;53.132;6.574;2022-12-18T12:50:30;6.38;;;2.60;;
57752;SDS011;43583;53.132;6.574;2022-12-18T12:52:59;6.07;;;3.05;;
57752;SDS011;43583;53.132;6.574;2022-12-18T12:55:30;7.55;;;2.92;;
57752;SDS011;43583;53.132;6.574;2022-12-18T12:58:15;4.90;;;2.25;;
57752;SDS011;43583;53.132;6.574;2022-12-18T13:01:48;5.53;;;3.22;;
57752;SDS011;43583;53.132;6.574;2022-12-18T13:03:55;5.25;;;2.40;;
57752;SDS011;43583;53.132;6.574;2022-12-18T13:09:13;6.90;;;2.95;;
57752;SDS011;43583;53.132;6.574;2022-12-18T13:11:39;5.05;;;1.50;;
57752;SDS011;43583;53.132;6.574;2022-12-18T13:14:29;6.00;;;2.40;;
57752;SDS011;43583;53.132;6.574;2022-12-18T13:17:17;4.30;;;2.38;;
57752;SDS011;43583;53.132;6.574;2022-12-18T13:19:44;9.75;;;3.50;;
57752;SDS011;43583;53.132;6.574;2022-12-18T13:22:23;5.20;;;2.20;;
57752;SDS011;43583;53.132;6.574;2022-12-18T13:24:59;4.85;;;2.00;;
57752;SDS011;43583;53.132;6.574;2022-12-18T13:35:41;7.68;;;2.88;;
57752;SDS011;43583;53.132;6.574;2022-12-18T13:40:57;5.82;;;2.35;;
57752;SDS011;43583;53.132;6.574;2022-12-18T13:43:27;4.93;;;2.47;;
57752;SDS011;43583;53.132;6.574;2022-12-18T13:46:48;7.03;;;2.47;;
57752;SDS011;43583;53.132;6.574;2022-12-18T13:51:50;3.35;;;1.63;;
57752;SDS011;43583;53.132;6.574;2022-12-18T13:54:19;5.28;;;2.80;;
57752;SDS011;43583;53.132;6.574;2022-12-18T13:56:46;3.63;;;1.95;;
57752;SDS011;43583;53.132;6.574;2022-12-18T13:59:14;5.88;;;2.50;;
57752;SDS011;43583;53.132;6.574;2022-12-18T14:01:47;6.38;;;2.35;;
57752;SDS011;43583;53.132;6.574;2022-12-18T14:04:25;6.88;;;3.00;;
57752;SDS011;43583;53.132;6.574;2022-12-18T14:07:10;4.55;;;2.35;;
57752;SDS011;43583;53.132;6.574;2022-12-18T14:09:41;5.95;;;2.65;;
57752;SDS011;43583;53.132;6.574;2022-12-18T14:12:21;5.28;;;2.50;;
57752;SDS011;43583;53.132;6.574;2022-12-18T14:17:45;9.50;;;2.80;;
57752;SDS011;43583;53.132;6.574;2022-12-18T14:20:15;5.78;;;2.22;;
57752;SDS011;43583;53.132;6.574;2022-12-18T14:22:45;6.80;;;2.63;;
57752;SDS011;43583;53.132;6.574;2022-12-18T14:28:23;6.03;;;2.25;;
57752;SDS011;43583;53.132;6.574;2022-12-18T14:30:43;4.55;;;1.98;;
57752;SDS011;43583;53.132;6.574;2022-12-18T14:36:05;4.53;;;2.13;;
57752;SDS011;43583;53.132;6.574;2022-12-18T14:38:39;4.70;;;2.20;;
57752;SDS011;43583;53.132;6.574;2022-12-18T14:43:36;6.70;;;2.40;;
57752;SDS011;43583;53.132;6.574;2022-12-18T14:46:03;5.40;;;2.55;;
57752;SDS011;43583;53.132;6.574;2022-12-18T14:48:41;6.07;;;2.20;;
57752;SDS011;43583;53.132;6.574;2022-12-18T14:51:17;5.68;;;2.50;;
57752;SDS011;43583;53.132;6.574;2022-12-18T14:54:03;6.57;;;3.42;;
57752;SDS011;43583;53.132;6.574;2022-12-18T14:56:42;5.43;;;2.67;;
57752;SDS011;43583;53.132;6.574;2022-12-18T14:59:15;8.73;;;4.53;;
57752;SDS011;43583;53.132;6.574;2022-12-18T15:04:44;6.60;;;2.60;;
57752;SDS011;43583;53.132;6.574;2022-12-18T15:09:36;9.23;;;4.97;;
57752;SDS011;43583;53.132;6.574;2022-12-18T15:12:03;6.35;;;4.05;;
57752;SDS011;43583;53.132;6.574;2022-12-18T15:16:59;6.57;;;3.78;;
57752;SDS011;43583;53.132;6.574;2022-12-18T15:19:34;7.95;;;3.22;;
57752;SDS011;43583;53.132;6.574;2022-12-18T15:22:03;5.53;;;3.17;;
57752;SDS011;43583;53.132;6.574;2022-12-18T15:24:30;9.10;;;3.60;;
57752;SDS011;43583;53.132;6.574;2022-12-18T15:26:57;8.90;;;4.30;;
57752;SDS011;43583;53.132;6.574;2022-12-18T15:29:23;7.78;;;3.55;;
57752;SDS011;43583;53.132;6.574;2022-12-18T15:31:57;7.30;;;4.25;;
57752;SDS011;43583;53.132;6.574;2022-12-18T15:34:25;9.50;;;3.38;;
57752;SDS011;43583;53.132;6.574;2022-12-18T15:36:51;10.27;;;4.72;;
57752;SDS011;43583;53.132;6.574;2022-12-18T15:39:17;8.85;;;3.72;;
57752;SDS011;43583;53.132;6.574;2022-12-18T15:41:42;12.43;;;3.97;;
57752;SDS011;43583;53.132;6.574;2022-12-18T15:44:28;6.80;;;3.53;;
57752;SDS011;43583;53.132;6.574;2022-12-18T15:46:54;8.55;;;4.20;;
57752;SDS011;43583;53.132;6.574;2022-12-18T15:49:20;7.20;;;4.20;;
57752;SDS011;43583;53.132;6.574;2022-12-18T15:51:47;7.53;;;3.85;;
57752;SDS011;43583;53.132;6.574;2022-12-18T15:54:22;10.48;;;5.07;;
57752;SDS011;43583;53.132;6.574;2022-12-18T15:57:10;7.70;;;4.07;;
57752;SDS011;43583;53.132;6.574;2022-12-18T15:59:49;6.93;;;3.95;;
57752;SDS011;43583;53.132;6.574;2022-12-18T16:02:17;9.02;;;4.40;;
57752;SDS011;43583;53.132;6.574;2022-12-18T16:04:43;10.88;;;4.40;;
57752;SDS011;43583;53.132;6.574;2022-12-18T16:07:10;8.30;;;4.43;;
57752;SDS011;43583;53.132;6.574;2022-12-18T16:09:36;11.80;;;5.03;;
57752;SDS011;43583;53.132;6.574;2022-12-18T16:12:03;10.38;;;4.68;;
57752;SDS011;43583;53.132;6.574;2022-12-18T16:14:30;9.10;;;4.13;;
57752;SDS011;43583;53.132;6.574;2022-12-18T16:16:57;7.75;;;4.53;;
57752;SDS011;43583;53.132;6.574;2022-12-18T16:19:25;9.25;;;4.75;;
57752;SDS011;43583;53.132;6.574;2022-12-18T16:21:51;9.48;;;4.57;;
57752;SDS011;43583;53.132;6.574;2022-12-18T16:24:20;10.98;;;4.80;;
57752;SDS011;43583;53.132;6.574;2022-12-18T16:26:48;9.25;;;4.82;;
57752;SDS011;43583;53.132;6.574;2022-12-18T16:29:16;11.40;;;4.45;;
57752;SDS011;43583;53.132;6.574;2022-12-18T16:31:42;12.13;;;4.18;;
57752;SDS011;43583;53.132;6.574;2022-12-18T16:34:21;7.70;;;4.22;;
57752;SDS011;43583;53.132;6.574;2022-12-18T16:36:51;6.95;;;3.65;;
57752;SDS011;43583;53.132;6.574;2022-12-18T16:39:18;10.57;;;4.43;;
57752;SDS011;43583;53.132;6.574;2022-12-18T16:41:44;8.98;;;4.18;;